Wednesday, October 01, 2014
08:17 UTC
  |  Log In   |  Register Free
Airport Search:

Coleman Municipal Airport
(KCOM)

Coleman Municipal Airport Diagram
No Airport Diagram Available

FAA data valid effective September 18, 2014 - November 13, 2014 (unless otherwise noted).

 
 
 
 
 
 
 
 
 
 
 
 
 
 

Current Aviation Weather for Coleman Municipal Airport (KCOM)

The most recent METAR observation for KCOM was updated at: 0812
METAR Summary (Translated METAR)
KCOM
010755Z AUTO 18004KT 10SM CLR 21/16 A2981 RMK AO2 T02100156
KBWD
010755Z AUTO 16005KT 10SM FEW041 21/17 A2981 RMK AO2
(23 nm SE from KCOM)
KABI
010752Z 18014G18KT 10SM CLR 25/16 A2978 RMK AO2 SLP056 T02500161
(37 nm NW from KCOM)
TAF Summary (Translated TAF)
KABI
(37 nm NW from KCOM)
010520Z 0106/0206 17011KT P6SM SCT100 FM011400 19014G21KT P6SM FEW120 FM020000 17011KT P6SM SKC
  Airport Weather Conditions for KCOM

 Current Weather at COM
70° F
Fair
South winds at 4.6 mph
COM NOAA Radar

Pressure: 29.81 in
Humidity: 71%
Wind: South at 4.6 MPH (4 KT)
Dew Point: 60.3°F
Visibility: 10.00 mi


Airport Weather Forecast for KCOM

Translated METAR and TAF for KCOM
Translated METAR for KCOM (0811 UTC 01 October 2014)
found at http://aviationweather.gov/adds/metars/
 
METAR text: KCOM 010755Z AUTO 18004KT 10SM CLR 21/16 A2981 RMK AO2 T02100156
Conditions at: KCOM (COLEMAN MUNI , TX, US) observed 0755 UTC 01 October 2014
Temperature: 21.0°C (70°F)
Dewpoint: 15.6°C (60°F) [RH = 71%]
Pressure (altimeter): 29.81 inches Hg (1009.6 mb)
Winds: from the S (180 degrees) at 5 MPH (4 knots; 2.1 m/s)
Visibility: 10 or more miles (16+ km)
Ceiling: at least 12,000 feet AGL
Clouds: sky clear below 12,000 feet AGL
Weather: automated observation with no human augmentation;
there may or may not be significant weather present at this time
Translated TAF for KCOM

There is no translated TAF available for this airport

Find All Airport Services Find A Hotel Find A Rental Car Find A Golf Course Find A Restaurant $100 Hamburger



FBO's on the Field
FBO Company Facility Photos Services Transportation Aviation Fuel Prices: Prices include tax
Catering Weather Repair Courtesy Rental Type 100LL JetA JetA+ MOGAS 8087
 
Add another FBO Facility Photos Catering Weather Repair Courtesy Rental Type 100LL JetA JetA+ MOGAS 8087
Services Transportation Aviation Fuel Prices: Prices include tax
There are no FBO's currently reporting fuel at COM. List your FBO now


model-print
model-print
model-print
model-print